Time;durP1;ratioP1;P1;durP2;ratioP2;P2;SDS_P1;SDS_P2;PMS_P1;PMS_P2;Temp;Humidity;BMP_temperature;BMP_pressure;BME280_temperature;BME280_humidity;BME280_pressure;Samples;Min_cycle;Max_cycle;Signal;HPM_P1;HPM_P2
2021/09/22 00:01:47;;;;;;;28.98;4.43;;;;;;;11.11;90.58;101314.94;5103397;28;20508;-76
2021/09/22 00:04:12;;;;;;;16.23;4.57;;;;;;;11.06;90.86;101304.53;5103439;28;20075;-76
2021/09/22 00:06:38;;;;;;;20.55;4.57;;;;;;;11.13;91.05;101313.22;5103354;28;20057;-75
2021/09/22 00:09:03;;;;;;;31.38;5.30;;;;;;;11.12;91.01;101308.84;5103421;28;20153;-75
2021/09/22 00:11:28;;;;;;;19.48;4.68;;;;;;;11.13;90.86;101302.81;5103287;28;20035;-75
2021/09/22 00:13:54;;;;;;;18.60;4.95;;;;;;;11.19;91.10;101305.44;5103373;28;20036;-75
2021/09/22 00:16:19;;;;;;;22.13;4.95;;;;;;;11.23;91.20;101319.31;5084954;28;20035;-75
2021/09/22 00:18:44;;;;;;;13.43;5.13;;;;;;;11.26;91.19;101316.72;5085239;28;20053;-74
2021/09/22 00:21:10;;;;;;;21.90;5.88;;;;;;;11.26;91.00;101319.34;5103149;28;20024;-75
2021/09/22 00:23:37;;;;;;;19.98;3.67;;;;;;;11.25;91.08;101315.84;5102786;28;20037;-74
2021/09/22 00:26:02;;;;;;;21.52;5.53;;;;;;;11.34;91.17;101320.19;5103368;28;20024;-74
2021/09/22 00:28:28;;;;;;;23.05;4.68;;;;;;;11.39;91.47;101308.09;5103379;28;20106;-74
2021/09/22 00:30:54;;;;;;;22.60;4.30;;;;;;;11.42;91.06;101303.78;5103102;28;20046;-74
2021/09/22 00:33:19;;;;;;;19.77;4.20;;;;;;;11.38;90.92;101306.38;5103199;28;20020;-74
2021/09/22 00:35:45;;;;;;;16.65;4.28;;;;;;;11.33;90.81;101304.59;5103163;28;20020;-74
2021/09/22 00:38:10;;;;;;;21.52;4.88;;;;;;;11.31;90.66;101307.19;5103360;28;20032;-74
2021/09/22 00:40:35;;;;;;;24.20;4.72;;;;;;;11.25;90.75;101304.56;5105513;28;20028;-73
2021/09/22 00:43:01;;;;;;;23.35;4.68;;;;;;;11.14;90.26;101299.34;5089151;28;20382;-75
2021/09/22 00:45:26;;;;;;;22.35;5.30;;;;;;;11.10;90.48;101298.47;5106997;28;20080;-74
2021/09/22 00:47:52;;;;;;;27.83;6.53;;;;;;;11.01;90.30;101293.22;5107186;28;20031;-74
2021/09/22 00:50:17;;;;;;;19.90;4.72;;;;;;;11.02;90.36;101305.38;5107145;28;20063;-73
2021/09/22 00:52:44;;;;;;;17.05;4.25;;;;;;;11.00;90.76;101288.91;5106933;28;20479;-74
2021/09/22 00:55:11;;;;;;;21.02;4.82;;;;;;;10.98;90.72;101295.81;5107243;28;20031;-74
2021/09/22 00:57:48;;;;;;;18.20;4.53;;;;;;;10.94;90.99;101291.47;5107073;28;20050;-75
2021/09/22 01:00:13;;;;;;;13.00;4.32;;;;;;;10.97;91.01;101289.78;5106965;28;20087;-73
2021/09/22 01:02:39;;;;;;;25.95;5.05;;;;;;;10.99;91.00;101294.97;5106772;28;20053;-74
2021/09/22 01:05:05;;;;;;;20.55;5.65;;;;;;;11.00;91.51;101292.38;5088585;28;20054;-73
2021/09/22 01:07:31;;;;;;;24.17;5.30;;;;;;;11.00;91.57;101283.72;5106840;28;20209;-73
2021/09/22 01:09:56;;;;;;;30.85;5.53;;;;;;;11.08;91.86;101284.63;5088619;28;20027;-74
2021/09/22 01:12:22;;;;;;;23.75;5.80;;;;;;;11.11;91.60;101288.94;5088450;28;20028;-73
2021/09/22 01:14:47;;;;;;;30.20;5.45;;;;;;;11.14;91.70;101288.94;5106359;28;20024;-73
2021/09/22 01:17:18;;;;;;;23.20;5.45;;;;;;;11.19;91.87;101304.56;5106509;28;20019;-74
2021/09/22 01:19:44;;;;;;;29.55;5.95;;;;;;;11.20;91.68;101296.78;5106685;28;20364;-74
2021/09/22 01:22:09;;;;;;;31.27;5.10;;;;;;;11.20;91.58;101301.97;5106151;28;20042;-73
2021/09/22 01:24:34;;;;;;;25.02;5.55;;;;;;;11.19;92.06;101305.44;5106487;28;20031;-73
2021/09/22 01:27:00;;;;;;;35.33;4.80;;;;;;;11.15;91.97;101304.56;5106493;28;20016;-74
2021/09/22 01:29:25;;;;;;;25.90;5.60;;;;;;;11.21;92.13;101314.13;5088389;28;20020;-73
2021/09/22 01:31:51;;;;;;;28.15;6.65;;;;;;;11.18;91.89;101314.13;5106314;28;20444;-74
2021/09/22 01:34:16;;;;;;;30.73;6.82;;;;;;;11.22;92.04;101322.75;5106359;28;20024;-73
2021/09/22 01:36:41;;;;;;;19.48;4.65;;;;;;;11.24;91.87;101321.94;5106314;28;20024;-73
2021/09/22 01:39:07;;;;;;;31.02;6.45;;;;;;;11.30;92.11;101321.06;5106426;28;20047;-74
2021/09/22 01:41:32;;;;;;;36.13;6.07;;;;;;;11.34;92.29;101317.59;5105960;28;20111;-75
2021/09/22 01:43:59;;;;;;;31.02;6.28;;;;;;;11.41;92.20;101313.28;5106054;28;20016;-75
2021/09/22 01:46:26;;;;;;;33.63;6.32;;;;;;;11.45;92.04;101303.78;5105872;28;20039;-75
2021/09/22 01:48:51;;;;;;;32.50;7.15;;;;;;;11.53;92.35;101309.88;5106393;28;20023;-75
2021/09/22 01:51:17;;;;;;;29.50;5.32;;;;;;;11.59;92.12;101307.28;5105696;28;20111;-74
2021/09/22 01:53:42;;;;;;;24.65;4.82;;;;;;;11.57;91.95;101309.00;5105935;28;20573;-74
2021/09/22 01:56:09;;;;;;;34.78;5.15;;;;;;;11.53;91.74;101307.28;5087665;28;20026;-75
2021/09/22 01:58:35;;;;;;;32.65;6.07;;;;;;;11.59;91.55;101309.88;5106144;28;20076;-75
2021/09/22 02:01:04;;;;;;;30.40;5.75;;;;;;;11.57;91.83;101305.53;5105768;28;20051;-75
2021/09/22 02:03:30;;;;;;;30.50;5.68;;;;;;;11.58;91.87;101302.94;5105821;28;20020;-74
2021/09/22 02:05:55;;;;;;;23.85;5.28;;;;;;;11.62;91.87;101299.47;5105637;28;20083;-74
2021/09/22 02:08:20;;;;;;;36.55;5.63;;;;;;;11.67;91.60;101298.59;5087497;28;20030;-74
2021/09/22 02:10:46;;;;;;;24.33;5.93;;;;;;;11.70;91.68;101303.81;5105733;28;20084;-74
2021/09/22 02:13:12;;;;;;;30.95;5.32;;;;;;;11.75;91.81;101304.69;5087265;28;20046;-74
2021/09/22 02:15:38;;;;;;;30.67;5.07;;;;;;;11.75;91.53;101300.38;5105501;28;20049;-74
2021/09/22 02:18:03;;;;;;;21.27;4.97;;;;;;;11.78;91.67;101304.69;5105761;28;20236;-74
2021/09/22 02:20:29;;;;;;;33.03;5.20;;;;;;;11.79;91.54;101303.81;5105417;28;20022;-75
2021/09/22 02:22:54;;;;;;;31.83;5.65;;;;;;;11.80;91.81;101304.69;5105352;28;20118;-75
2021/09/22 02:25:20;;;;;;;27.05;4.65;;;;;;;11.81;91.50;101296.91;5105643;28;20111;-75
2021/09/22 02:27:46;;;;;;;33.42;5.50;;;;;;;11.80;91.45;101295.16;5105430;28;20024;-74
2021/09/22 02:30:15;;;;;;;29.80;4.85;;;;;;;11.84;91.72;101299.50;5105407;28;20028;-74
2021/09/22 02:32:41;;;;;;;27.48;5.15;;;;;;;11.84;91.51;101289.09;5087039;28;20027;-73
2021/09/22 02:35:08;;;;;;;21.00;4.90;;;;;;;11.85;91.82;101293.41;5105379;28;20519;-74
2021/09/22 02:37:34;;;;;;;22.75;5.20;;;;;;;11.86;91.63;101283.88;5105106;28;20085;-75
2021/09/22 02:39:59;;;;;;;30.45;4.65;;;;;;;11.90;91.70;101289.09;5086981;28;20016;-74
2021/09/22 02:42:25;;;;;;;24.60;4.93;;;;;;;11.89;91.73;101278.69;5105019;28;20032;-74
2021/09/22 02:44:51;;;;;;;26.58;5.50;;;;;;;11.90;91.58;101273.47;5104761;28;20160;-74
2021/09/22 02:47:19;;;;;;;26.83;4.93;;;;;;;11.99;91.43;101285.63;5105132;28;20475;-76
2021/09/22 02:49:45;;;;;;;34.42;5.63;;;;;;;11.96;91.63;101295.16;5104965;28;20027;-74
2021/09/22 02:52:11;;;;;;;30.17;5.60;;;;;;;11.98;91.35;101283.03;5104627;28;20022;-75
2021/09/22 02:54:36;;;;;;;26.88;4.97;;;;;;;12.03;91.21;101291.69;5104824;28;20020;-75
2021/09/22 02:57:02;;;;;;;34.70;5.63;;;;;;;12.05;91.20;101289.97;5104552;28;20024;-74
2021/09/22 02:59:27;;;;;;;30.33;5.32;;;;;;;11.99;90.93;101277.84;5086285;28;20024;-74
2021/09/22 03:01:52;;;;;;;23.67;5.32;;;;;;;12.02;90.80;101285.63;5104221;28;20445;-74
2021/09/22 03:04:18;;;;;;;22.80;4.45;;;;;;;11.98;90.82;101273.47;5106132;28;20031;-75
2021/09/22 03:06:43;;;;;;;29.38;4.68;;;;;;;11.99;90.78;101277.84;5087984;28;20024;-74
2021/09/22 03:09:09;;;;;;;18.98;4.18;;;;;;;11.98;90.70;101283.03;5104891;28;20058;-75
2021/09/22 03:11:34;;;;;;;21.92;4.28;;;;;;;11.96;90.67;101276.97;5104096;28;20140;-75
2021/09/22 03:14:00;;;;;;;28.50;6.13;;;;;;;11.96;90.36;101280.44;5086063;28;20020;-75
2021/09/22 03:16:25;;;;;;;26.42;4.55;;;;;;;11.95;90.31;101278.69;5104266;28;20020;-75
2021/09/22 03:18:50;;;;;;;29.42;5.35;;;;;;;11.89;90.22;101270.88;5104323;28;20076;-75
2021/09/22 03:21:16;;;;;;;28.85;5.82;;;;;;;11.94;90.37;101276.09;5104195;28;20085;-74
2021/09/22 03:23:41;;;;;;;25.77;4.35;;;;;;;11.87;90.07;101268.28;5103969;28;20079;-74
2021/09/22 03:26:07;;;;;;;27.35;5.20;;;;;;;11.87;89.98;101275.22;5104307;28;20024;-74
2021/09/22 03:28:33;;;;;;;20.55;3.83;;;;;;;11.81;89.75;101280.41;5085867;28;20020;-75
2021/09/22 03:30:58;;;;;;;22.63;4.95;;;;;;;11.75;89.66;101282.16;5104064;28;20035;-74
2021/09/22 03:33:23;;;;;;;27.23;5.00;;;;;;;11.67;89.49;101278.69;5103893;28;20153;-75
2021/09/22 03:35:50;;;;;;;31.33;4.47;;;;;;;11.59;89.68;101286.47;5104124;28;20115;-74
2021/09/22 03:38:16;;;;;;;22.42;4.63;;;;;;;11.51;89.55;101285.59;5104030;28;20028;-74
2021/09/22 03:40:41;;;;;;;24.55;5.82;;;;;;;11.46;89.52;101280.38;5104080;28;20023;-75
2021/09/22 03:43:07;;;;;;;25.52;5.05;;;;;;;11.40;89.41;101276.06;5103884;28;20030;-75
2021/09/22 03:45:33;;;;;;;23.45;6.47;;;;;;;11.40;89.52;101277.78;5103822;28;20380;-74
2021/09/22 03:47:58;;;;;;;31.80;5.60;;;;;;;11.39;89.75;101271.69;5103832;28;20053;-74
2021/09/22 03:50:24;;;;;;;21.83;5.72;;;;;;;11.30;89.71;101258.69;5085660;28;20024;-75
2021/09/22 03:52:49;;;;;;;31.88;4.90;;;;;;;11.34;89.69;101268.22;5103930;28;20034;-73
2021/09/22 03:55:15;;;;;;;28.08;5.65;;;;;;;11.34;89.71;101273.41;5103583;28;20044;-74
2021/09/22 03:57:40;;;;;;;24.17;5.22;;;;;;;11.32;89.46;101267.34;5103810;28;20020;-74
2021/09/22 04:00:06;;;;;;;31.75;6.45;;;;;;;11.29;89.56;101264.75;5103445;28;20334;-75
2021/09/22 04:02:32;;;;;;;29.67;5.22;;;;;;;11.31;89.30;101265.59;5103635;28;20024;-73
2021/09/22 04:04:57;;;;;;;30.23;6.22;;;;;;;11.37;89.48;101267.38;5103606;28;20478;-73
2021/09/22 04:07:23;;;;;;;37.35;6.50;;;;;;;11.37;89.28;101260.41;5103606;28;20050;-73
2021/09/22 04:09:48;;;;;;;31.80;6.65;;;;;;;11.34;89.41;101260.41;5103586;28;20028;-76
2021/09/22 04:12:13;;;;;;;30.08;6.80;;;;;;;11.38;89.23;101262.16;5085060;28;20024;-76
2021/09/22 04:14:39;;;;;;;27.63;5.50;;;;;;;11.37;89.68;101250.00;5103368;28;20020;-75
2021/09/22 04:17:04;;;;;;;36.63;6.30;;;;;;;11.42;89.76;101251.78;5103479;28;20035;-74
2021/09/22 04:19:29;;;;;;;36.78;5.95;;;;;;;11.43;89.87;101258.69;5103996;28;20087;-75
2021/09/22 04:21:55;;;;;;;28.90;6.78;;;;;;;11.44;89.89;101245.69;5103462;28;20031;-74
2021/09/22 04:24:20;;;;;;;33.88;6.40;;;;;;;11.33;90.04;101231.81;5103366;28;20044;-74
2021/09/22 04:26:45;;;;;;;25.95;5.35;;;;;;;11.49;90.05;101248.31;5103461;28;20020;-74
2021/09/22 04:29:11;;;;;;;26.08;4.80;;;;;;;11.46;89.94;101243.09;5103263;28;20072;-74
2021/09/22 04:31:37;;;;;;;30.75;6.07;;;;;;;11.48;89.87;101241.38;5103283;28;20095;-74
2021/09/22 04:34:03;;;;;;;36.13;5.90;;;;;;;11.46;89.86;101243.09;5085227;28;20016;-75
2021/09/22 04:36:29;;;;;;;35.75;6.07;;;;;;;11.46;89.74;101243.97;5085467;28;20026;-75
2021/09/22 04:38:54;;;;;;;29.23;6.20;;;;;;;11.50;89.51;101244.84;5103370;28;20453;-75
2021/09/22 04:41:20;;;;;;;33.42;5.93;;;;;;;11.49;89.60;101246.59;5103332;28;20035;-74
2021/09/22 04:43:45;;;;;;;21.92;5.80;;;;;;;11.42;89.60;101247.44;5103409;28;20484;-75
2021/09/22 04:46:11;;;;;;;28.70;6.38;;;;;;;11.42;89.40;101249.19;5103098;28;20334;-75
2021/09/22 04:48:39;;;;;;;33.35;6.60;;;;;;;11.30;89.29;101243.09;5103319;28;20016;-75
2021/09/22 04:51:04;;;;;;;36.92;7.45;;;;;;;11.30;89.24;101253.47;5103347;28;20074;-74
2021/09/22 04:53:30;;;;;;;32.85;5.82;;;;;;;11.28;89.50;101248.28;5102928;28;20048;-70
2021/09/22 04:55:56;;;;;;;41.60;7.25;;;;;;;11.25;89.34;101253.47;5103197;28;20047;-71
2021/09/22 04:58:21;;;;;;;33.60;6.82;;;;;;;11.22;89.22;101248.25;5103022;28;20050;-73
2021/09/22 05:00:46;;;;;;;42.50;7.07;;;;;;;11.22;89.42;101250.88;5102927;28;20028;-72
2021/09/22 05:03:12;;;;;;;33.85;7.63;;;;;;;11.18;89.24;101243.94;5102852;28;20037;-73
2021/09/22 05:05:37;;;;;;;33.25;7.47;;;;;;;11.20;89.46;101251.75;5102825;28;20031;-71
2021/09/22 05:08:03;;;;;;;34.20;7.40;;;;;;;11.14;89.43;101250.84;5102909;28;20256;-72
2021/09/22 05:10:29;;;;;;;38.75;7.55;;;;;;;11.18;89.37;101253.47;5102766;28;20027;-73
2021/09/22 05:12:55;;;;;;;45.92;8.35;;;;;;;11.19;89.19;101255.19;5102946;28;20279;-77
2021/09/22 05:15:20;;;;;;;36.90;7.57;;;;;;;11.26;89.60;101263.00;5102808;28;20031;-72
2021/09/22 05:17:46;;;;;;;40.95;7.03;;;;;;;11.35;89.89;101269.97;5102898;28;20020;-73
2021/09/22 05:20:12;;;;;;;43.63;7.80;;;;;;;11.43;90.02;101263.91;5102803;28;20083;-71
2021/09/22 05:22:37;;;;;;;55.92;9.18;;;;;;;11.48;89.99;101264.78;5102583;28;20044;-70
2021/09/22 05:25:03;;;;;;;32.30;7.93;;;;;;;11.55;90.06;101269.13;5102881;28;20076;-73
2021/09/22 05:27:29;;;;;;;53.90;8.18;;;;;;;11.59;90.03;101268.28;5087718;28;20055;-72
2021/09/22 05:29:54;;;;;;;36.40;6.75;;;;;;;11.55;90.23;101263.91;5106190;28;20047;-73
2021/09/22 05:32:20;;;;;;;51.08;7.60;;;;;;;11.67;90.09;101272.59;5106441;28;20019;-72
2021/09/22 05:34:45;;;;;;;52.10;9.75;;;;;;;11.70;90.15;101277.81;5106185;28;20024;-71
2021/09/22 05:37:10;;;;;;;40.08;8.38;;;;;;;11.71;90.21;101284.75;5087975;28;20020;-72
2021/09/22 05:39:36;;;;;;;37.13;8.60;;;;;;;11.68;90.19;101276.97;5106444;28;20020;-72
2021/09/22 05:42:02;;;;;;;46.83;7.88;;;;;;;11.73;90.14;101281.28;5106148;28;21077;-71
2021/09/22 05:44:27;;;;;;;41.45;7.70;;;;;;;11.76;90.20;101283.88;5106317;28;20047;-71
2021/09/22 05:46:53;;;;;;;42.70;6.75;;;;;;;11.76;90.16;101285.59;5106289;28;20024;-73
2021/09/22 05:49:18;;;;;;;33.92;6.63;;;;;;;11.76;89.91;101283.88;5106236;28;20504;-72
2021/09/22 05:51:43;;;;;;;31.75;6.78;;;;;;;11.77;89.81;101285.59;5106067;28;20020;-71
2021/09/22 05:54:09;;;;;;;51.08;8.45;;;;;;;11.78;89.88;101276.97;5105953;28;20396;-71
2021/09/22 05:56:34;;;;;;;42.15;7.40;;;;;;;11.78;89.56;101276.97;5106194;28;20016;-71
2021/09/22 05:59:00;;;;;;;47.28;8.57;;;;;;;11.76;89.97;101276.09;5106130;28;20427;-72
2021/09/22 06:01:25;;;;;;;59.85;9.73;;;;;;;11.78;90.05;101271.75;5105777;28;20391;-72
2021/09/22 06:03:51;;;;;;;52.97;7.25;;;;;;;11.85;90.31;101266.56;5105893;28;20112;-73
2021/09/22 06:06:16;;;;;;;58.00;9.45;;;;;;;11.87;90.30;101260.47;5105750;28;20027;-72
2021/09/22 06:08:41;;;;;;;62.25;9.32;;;;;;;11.94;90.49;101263.06;5087452;28;20031;-71
2021/09/22 06:11:07;;;;;;;54.50;10.75;;;;;;;11.98;90.41;101264.81;5105783;28;20020;-72
2021/09/22 06:13:32;;;;;;;61.60;9.65;;;;;;;11.98;90.54;101268.28;5105302;28;20071;-71
2021/09/22 06:15:58;;;;;;;61.92;10.45;;;;;;;12.03;90.42;101266.53;5105278;28;20047;-71
2021/09/22 06:18:23;;;;;;;58.67;9.27;;;;;;;12.03;90.81;101253.53;5105623;28;20073;-71
2021/09/22 06:20:48;;;;;;;54.72;9.05;;;;;;;12.12;90.82;101265.69;5105391;28;20023;-71
2021/09/22 06:23:14;;;;;;;57.47;9.43;;;;;;;12.19;90.86;101265.69;5105190;28;20367;-73
2021/09/22 06:25:40;;;;;;;56.03;8.88;;;;;;;12.37;91.35;101265.66;5105495;28;20038;-73
2021/09/22 06:28:05;;;;;;;51.08;9.25;;;;;;;12.54;91.76;101256.94;5105326;28;20024;-73
2021/09/22 06:30:30;;;;;;;46.55;6.82;;;;;;;12.77;91.83;101258.59;5105240;28;20091;-72
2021/09/22 06:32:56;;;;;;;36.65;7.20;;;;;;;13.23;92.80;101264.44;5105267;28;20039;-72
2021/09/22 06:35:21;;;;;;;35.65;6.28;;;;;;;13.76;92.89;101274.56;5087149;28;20452;-72
2021/09/22 06:37:49;;;;;;;43.15;6.68;;;;;;;14.03;91.98;101263.91;5104136;28;20016;-73
2021/09/22 06:40:17;;;;;;;36.22;7.55;;;;;;;14.18;91.92;101253.34;5104984;28;20056;-73
2021/09/22 06:42:44;;;;;;;35.83;6.13;;;;;;;14.28;91.30;101243.63;5104870;28;20016;-73
2021/09/22 06:45:09;;;;;;;27.65;6.00;;;;;;;14.44;90.77;101249.56;5104748;28;20020;-73
2021/09/22 06:47:35;;;;;;;32.65;5.38;;;;;;;14.62;91.40;101243.28;5105102;28;20016;-73
2021/09/22 06:50:00;;;;;;;25.83;5.53;;;;;;;15.09;91.20;101250.56;5104846;28;20020;-72
2021/09/22 06:52:27;;;;;;;17.77;4.57;;;;;;;15.54;90.69;101243.81;5104834;28;20131;-72
2021/09/22 06:54:52;;;;;;;26.55;6.22;;;;;;;16.07;90.33;101244.72;5086467;28;20016;-73
2021/09/22 06:57:18;;;;;;;17.90;4.80;;;;;;;16.50;89.46;101245.66;5104763;28;20031;-71
2021/09/22 06:59:43;;;;;;;24.00;4.45;;;;;;;16.92;88.50;101246.53;5104901;28;20024;-72
2021/09/22 07:02:08;;;;;;;20.13;4.50;;;;;;;17.42;87.94;101248.97;5104125;28;20016;-72
2021/09/22 07:04:33;;;;;;;27.45;4.72;;;;;;;17.99;86.80;101239.69;5104246;28;20012;-72
2021/09/22 07:06:59;;;;;;;18.77;4.97;;;;;;;18.58;85.04;101243.34;5104389;28;20062;-72
2021/09/22 07:09:24;;;;;;;22.02;4.38;;;;;;;19.12;82.98;101242.72;5104644;28;20020;-72
2021/09/22 07:11:49;;;;;;;25.63;4.88;;;;;;;19.12;78.83;101226.91;5104454;28;20085;-72
2021/09/22 07:14:15;;;;;;;26.02;5.18;;;;;;;18.96;78.23;101232.63;5104174;28;20028;-72
2021/09/22 07:16:40;;;;;;;17.88;5.20;;;;;;;19.08;78.44;101220.84;5104654;28;20047;-72
2021/09/22 07:19:05;;;;;;;16.05;3.97;;;;;;;19.52;77.67;101228.25;5104331;28;20038;-73
2021/09/22 07:21:32;;;;;;;17.92;4.60;;;;;;;19.90;75.99;101224.38;5104528;28;20070;-74
2021/09/22 07:23:57;;;;;;;18.08;3.90;;;;;;;20.14;74.11;101233.25;5103975;28;20469;-75
2021/09/22 07:26:22;;;;;;;20.40;4.20;;;;;;;19.88;72.37;101227.06;5104273;28;20495;-75
2021/09/22 07:28:48;;;;;;;17.75;4.53;;;;;;;19.46;71.58;101240.78;5104224;28;20020;-75
2021/09/22 07:31:13;;;;;;;23.23;5.13;;;;;;;19.10;71.47;101231.34;5107445;28;20040;-74
2021/09/22 07:33:39;;;;;;;22.98;4.80;;;;;;;19.03;72.45;101228.03;5103883;28;20043;-74
2021/09/22 07:36:06;;;;;;;23.90;5.00;;;;;;;19.37;70.79;101234.91;5104071;28;20028;-74
2021/09/22 07:38:31;;;;;;;23.80;4.65;;;;;;;19.63;70.88;101229.69;5103739;28;20035;-75
2021/09/22 07:40:57;;;;;;;27.23;5.53;;;;;;;19.90;69.07;101230.53;5103889;28;20020;-73
2021/09/22 07:43:22;;;;;;;24.10;5.20;;;;;;;20.10;68.04;101236.88;5103983;28;20036;-73
2021/09/22 07:45:48;;;;;;;28.30;6.15;;;;;;;20.05;66.35;101238.81;5103782;28;20510;-74
2021/09/22 07:48:13;;;;;;;21.30;5.10;;;;;;;19.64;63.87;101234.03;5103408;28;20027;-75
2021/09/22 07:50:39;;;;;;;25.23;4.63;;;;;;;19.25;63.89;101238.78;5103950;28;20016;-74
2021/09/22 07:53:04;;;;;;;29.58;5.78;;;;;;;18.82;64.40;101236.53;5103666;28;20027;-74
2021/09/22 07:55:30;;;;;;;38.25;6.45;;;;;;;18.45;65.31;101232.34;5103793;28;20053;-73
2021/09/22 07:57:56;;;;;;;27.88;7.22;;;;;;;18.11;66.51;101243.75;5085462;28;20480;-73
2021/09/22 08:00:22;;;;;;;29.13;7.45;;;;;;;17.81;67.30;101239.28;5103432;28;20027;-73
2021/09/22 08:02:49;;;;;;;28.58;5.40;;;;;;;17.78;68.07;101237.56;5103515;28;20016;-72
2021/09/22 08:05:14;;;;;;;28.00;6.90;;;;;;;17.88;67.42;101242.59;5103760;28;20095;-73
2021/09/22 08:07:39;;;;;;;22.35;5.97;;;;;;;18.03;67.70;101236.94;5085320;28;20040;-73
2021/09/22 08:10:05;;;;;;;31.70;6.13;;;;;;;18.15;65.93;101246.28;5103410;28;20028;-72
2021/09/22 08:12:31;;;;;;;29.10;6.60;;;;;;;18.24;66.58;101231.19;5103175;28;20020;-73
2021/09/22 08:14:57;;;;;;;32.47;5.55;;;;;;;18.39;65.55;101232.50;5085151;28;20028;-72
2021/09/22 08:17:22;;;;;;;25.42;5.28;;;;;;;18.31;66.04;101225.72;5103150;28;20020;-73
2021/09/22 08:19:48;;;;;;;29.00;6.15;;;;;;;18.23;65.67;101232.09;5103470;28;20320;-73
2021/09/22 08:22:14;;;;;;;24.50;4.95;;;;;;;18.00;65.75;101223.91;5084747;28;20035;-72
2021/09/22 08:24:39;;;;;;;28.38;6.20;;;;;;;17.82;66.62;101222.59;5103355;28;20046;-73
2021/09/22 08:27:05;;;;;;;28.05;5.20;;;;;;;17.80;66.21;101214.75;5103503;28;20123;-74
2021/09/22 08:29:33;;;;;;;37.08;6.70;;;;;;;17.53;66.76;101225.06;5103385;28;20048;-73
2021/09/22 08:31:58;;;;;;;34.22;5.60;;;;;;;17.20;67.70;101224.97;5102912;28;20038;-72
2021/09/22 08:34:24;;;;;;;30.17;5.45;;;;;;;16.88;68.01;101231.78;5103202;28;20099;-72
2021/09/22 08:36:50;;;;;;;31.48;5.75;;;;;;;16.59;68.83;101221.88;5103106;28;20114;-72
2021/09/22 08:39:17;;;;;;;29.20;5.50;;;;;;;16.51;70.14;101221.16;5103127;28;20024;-72
2021/09/22 08:41:43;;;;;;;30.60;5.43;;;;;;;16.81;69.87;101221.41;5103102;28;20087;-73
2021/09/22 08:44:11;;;;;;;26.73;4.82;;;;;;;16.86;69.24;101221.31;5103044;28;20020;-73
2021/09/22 08:46:40;;;;;;;31.15;6.30;;;;;;;16.78;69.59;101220.59;5084767;28;20012;-73
2021/09/22 08:49:05;;;;;;;27.02;5.07;;;;;;;16.67;69.61;101199.88;5103211;28;20105;-72
2021/09/22 08:51:31;;;;;;;33.92;6.43;;;;;;;16.67;69.03;101210.34;5085034;28;20020;-73
2021/09/22 08:53:58;;;;;;;32.30;7.10;;;;;;;16.56;69.71;101216.69;5103134;28;20049;-72
2021/09/22 08:56:24;;;;;;;24.45;5.03;;;;;;;16.70;69.84;101210.28;5103384;28;20049;-72
2021/09/22 08:58:50;;;;;;;33.38;5.57;;;;;;;16.92;69.24;101213.31;5103137;28;20077;-72
2021/09/22 09:01:20;;;;;;;32.25;5.28;;;;;;;16.97;68.90;101215.81;5104866;28;20371;-72
2021/09/22 09:03:47;;;;;;;26.80;5.43;;;;;;;17.04;68.47;101204.31;5106899;28;20020;-72
2021/09/22 09:06:37;;;;;;;35.60;5.00;;;;;;;17.79;67.87;101194.66;5106922;28;20035;-72
2021/09/22 09:09:04;;;;;;;26.38;4.80;;;;;;;18.49;65.46;101188.41;5107117;28;20047;-72
2021/09/22 09:11:36;;;;;;;31.35;5.13;;;;;;;19.21;64.01;101181.88;5107162;28;20099;-71
2021/09/22 09:14:04;;;;;;;30.67;5.65;;;;;;;19.69;61.94;101187.31;5106668;28;20028;-72
2021/09/22 09:16:35;;;;;;;29.58;5.13;;;;;;;19.64;61.17;101191.88;5106674;28;20016;-72
2021/09/22 09:19:00;;;;;;;17.67;3.97;;;;;;;19.88;60.21;101184.03;5107070;28;20031;-72
2021/09/22 09:21:25;;;;;;;21.27;4.82;;;;;;;19.55;59.83;101191.28;5106607;28;20024;-73
2021/09/22 09:23:57;;;;;;;27.70;4.93;;;;;;;19.11;60.17;101185.69;5106207;28;20068;-72
2021/09/22 09:26:26;;;;;;;20.38;4.43;;;;;;;18.66;60.98;101187.91;5106608;28;20143;-73
2021/09/22 09:28:54;;;;;;;24.75;5.88;;;;;;;18.33;62.27;101183.59;5106597;28;20036;-72
2021/09/22 09:31:20;;;;;;;27.60;5.18;;;;;;;18.12;62.65;101178.06;5106213;28;20412;-73
2021/09/22 09:33:55;;;;;;;27.13;4.65;;;;;;;17.98;62.99;101167.03;5106289;28;20070;-72
2021/09/22 09:36:33;;;;;;;26.08;4.93;;;;;;;18.08;63.70;101165.88;5106418;28;20549;-72
2021/09/22 09:39:02;;;;;;;21.65;4.55;;;;;;;18.86;62.37;101154.88;5106502;28;20209;-74
2021/09/22 09:41:29;;;;;;;24.35;5.00;;;;;;;19.32;60.58;101153.44;5106512;28;20328;-73
2021/09/22 09:43:55;;;;;;;20.02;4.22;;;;;;;19.30;60.24;101154.38;5106119;28;20016;-73
2021/09/22 09:46:22;;;;;;;20.20;4.28;;;;;;;19.06;60.38;101165.63;5105816;28;20054;-71
2021/09/22 09:49:05;;;;;;;15.98;3.95;;;;;;;18.92;60.31;101159.94;5106276;28;20027;-72
2021/09/22 09:51:38;;;;;;;28.95;6.22;;;;;;;19.32;59.58;101149.94;5106198;28;20024;-71
2021/09/22 09:54:13;;;;;;;18.90;3.65;;;;;;;19.32;59.27;101148.16;5105927;28;20020;-71
2021/09/22 09:56:39;;;;;;;20.70;4.13;;;;;;;19.13;59.03;101145.28;5106098;28;20024;-72
2021/09/22 09:59:05;;;;;;;20.98;4.00;;;;;;;18.70;59.84;101143.09;5105979;28;20027;-72
2021/09/22 10:01:44;;;;;;;25.30;5.18;;;;;;;18.28;60.30;101139.06;5105677;28;20027;-71
2021/09/22 10:04:12;;;;;;;24.70;5.75;;;;;;;18.17;62.08;101133.25;5105835;28;20020;-72
2021/09/22 10:06:38;;;;;;;25.50;4.45;;;;;;;18.24;62.09;101139.19;5105770;28;20031;-72
2021/09/22 10:09:04;;;;;;;22.63;4.40;;;;;;;18.06;62.25;101126.53;5105820;28;20479;-71
2021/09/22 10:11:32;;;;;;;26.35;4.97;;;;;;;17.69;62.87;101132.78;5105857;28;20040;-72
2021/09/22 10:13:58;;;;;;;26.73;5.03;;;;;;;17.48;63.23;101135.06;5106146;28;20124;-73
2021/09/22 10:16:24;;;;;;;21.77;4.32;;;;;;;17.22;63.42;101133.97;5105558;28;20028;-72
2021/09/22 10:18:50;;;;;;;24.85;4.93;;;;;;;17.04;64.09;101137.88;5105510;28;20027;-72
2021/09/22 10:21:20;;;;;;;23.33;4.55;;;;;;;17.01;65.19;101135.31;5105559;28;20034;-71
2021/09/22 10:23:48;;;;;;;22.88;4.85;;;;;;;17.03;65.17;101126.50;5105171;28;20536;-71
2021/09/22 10:26:14;;;;;;;24.20;5.40;;;;;;;17.04;65.62;101125.63;5105412;28;20027;-72
2021/09/22 10:28:42;;;;;;;20.17;4.80;;;;;;;16.93;66.46;101115.34;5105430;28;20511;-71
2021/09/22 10:31:29;;;;;;;30.27;5.25;;;;;;;16.87;66.95;101112.03;5105358;28;20024;-71
2021/09/22 10:33:57;;;;;;;24.48;4.60;;;;;;;16.68;67.60;101113.31;5105120;28;20019;-71
2021/09/22 10:36:40;;;;;;;33.28;6.10;;;;;;;16.64;68.37;101113.44;5105251;28;20030;-70
2021/09/22 10:39:08;;;;;;;23.42;4.95;;;;;;;16.69;68.68;101116.81;5105095;28;20038;-70
2021/09/22 10:41:42;;;;;;;26.27;6.18;;;;;;;16.66;68.55;101116.88;5086916;28;20034;-72
2021/09/22 10:44:13;;;;;;;23.75;5.32;;;;;;;16.57;67.92;101105.69;5104835;28;20016;-72
2021/09/22 10:46:39;;;;;;;19.67;4.22;;;;;;;16.59;68.08;101106.53;5104784;28;20028;-71
2021/09/22 10:49:07;;;;;;;21.35;5.15;;;;;;;16.60;67.90;101110.00;5105265;28;20023;-72
2021/09/22 10:51:34;;;;;;;25.05;5.45;;;;;;;16.63;68.39;101109.09;5104776;28;20136;-72
2021/09/22 10:54:23;;;;;;;24.88;5.75;;;;;;;16.86;68.38;101100.69;5104646;28;20043;-71
2021/09/22 10:56:50;;;;;;;26.50;4.85;;;;;;;17.14;68.00;101092.16;5104831;28;20085;-71
2021/09/22 10:59:38;;;;;;;22.33;5.03;;;;;;;17.29;66.36;101108.41;5104848;28;20099;-71
2021/09/22 11:02:08;;;;;;;23.50;5.40;;;;;;;17.23;66.10;101098.97;5086432;28;20023;-72
2021/09/22 11:05:01;;;;;;;33.63;5.38;;;;;;;17.13;66.17;101106.19;5104839;28;20020;-72
2021/09/22 11:07:51;;;;;;;22.98;5.35;;;;;;;16.96;66.64;101123.16;5104673;28;20024;-72
2021/09/22 11:10:31;;;;;;;18.40;5.38;;;;;;;16.82;66.84;101118.25;5104633;28;20186;-71
2021/09/22 11:13:18;;;;;;;26.20;5.50;;;;;;;16.64;67.53;101113.44;5104272;28;20028;-71
2021/09/22 11:15:48;;;;;;;30.95;6.05;;;;;;;16.66;67.88;101116.88;5104257;28;20077;-74